Time;durP1;ratioP1;P1;durP2;ratioP2;P2;SDS_P1;SDS_P2;PMS_P1;PMS_P2;Temp;Humidity;BMP_temperature;BMP_pressure;BME280_temperature;BME280_humidity;BME280_pressure;Samples;Min_cycle;Max_cycle;Signal;HPM_P1;HPM_P2
2021/11/19 00:00:08;;;;;;;4.68;4.28;;;13.40;87.40;;;;;;4972100;28;20042;-76
2021/11/19 00:02:39;;;;;;;4.97;3.83;;;13.40;87.50;;;;;;4973185;28;20375;-75
2021/11/19 00:05:06;;;;;;;6.10;4.38;;;13.40;87.50;;;;;;4989521;28;20089;-74
2021/11/19 00:07:33;;;;;;;5.25;4.45;;;13.40;87.50;;;;;;4989211;28;20113;-75
2021/11/19 00:10:00;;;;;;;7.22;4.95;;;13.40;87.50;;;;;;4972434;28;20512;-75
2021/11/19 00:12:26;;;;;;;4.63;4.00;;;13.40;87.50;;;;;;4989943;28;20465;-75
2021/11/19 00:14:52;;;;;;;4.90;3.97;;;13.40;87.60;;;;;;4973179;28;20030;-86
2021/11/19 00:17:18;;;;;;;5.28;4.40;;;13.40;87.60;;;;;;4985405;28;20393;-76
2021/11/19 00:19:45;;;;;;;5.82;4.07;;;13.40;87.60;;;;;;5004520;28;20043;-77
2021/11/19 00:22:16;;;;;;;4.13;3.72;;;13.40;87.60;;;;;;4972789;28;20030;-81
2021/11/19 00:24:42;;;;;;;5.70;3.70;;;13.40;87.60;;;;;;5005365;28;20026;-76
2021/11/19 00:27:10;;;;;;;7.25;4.70;;;13.40;87.60;;;;;;5009359;28;20084;-76
2021/11/19 00:29:37;;;;;;;4.25;3.65;;;13.40;87.60;;;;;;5009381;28;20030;-75
2021/11/19 00:32:07;;;;;;;5.32;3.97;;;13.40;87.60;;;;;;4976113;28;20038;-75
2021/11/19 00:34:33;;;;;;;5.47;4.50;;;13.40;87.60;;;;;;5008651;28;20481;-76
2021/11/19 00:37:00;;;;;;;4.70;3.85;;;13.40;87.60;;;;;;5009058;28;20037;-75
2021/11/19 00:39:27;;;;;;;5.03;4.30;;;13.30;87.40;;;;;;4991362;28;20034;-76
2021/11/19 00:41:54;;;;;;;5.40;3.63;;;13.30;87.40;;;;;;4991180;28;20375;-75
2021/11/19 00:44:22;;;;;;;4.80;4.30;;;13.30;87.40;;;;;;4990971;28;20033;-75
2021/11/19 00:46:50;;;;;;;5.80;3.92;;;13.30;87.40;;;;;;5008775;28;20096;-75
2021/11/19 00:49:20;;;;;;;5.15;4.18;;;13.30;87.40;;;;;;5007813;28;20029;-76
2021/11/19 00:51:48;;;;;;;5.65;4.13;;;13.30;87.30;;;;;;4991391;28;20040;-76
2021/11/19 00:54:15;;;;;;;7.82;4.90;;;13.30;87.40;;;;;;5008423;28;20116;-78
2021/11/19 00:56:46;;;;;;;7.15;4.70;;;13.30;87.30;;;;;;5008682;28;20150;-75
2021/11/19 00:59:14;;;;;;;4.85;4.10;;;13.30;87.30;;;;;;4971542;28;20030;-78
2021/11/19 01:01:54;;;;;;;4.20;3.65;;;13.30;87.30;;;;;;4989390;28;20482;-75
2021/11/19 01:04:20;;;;;;;5.63;4.43;;;13.20;87.10;;;;;;4984974;28;20377;-76
2021/11/19 01:06:48;;;;;;;6.47;4.45;;;13.20;87.10;;;;;;4990001;28;20069;-74
2021/11/19 01:09:22;;;;;;;6.32;4.20;;;13.20;87.10;;;;;;4988351;28;20080;-76
2021/11/19 01:11:50;;;;;;;6.55;4.40;;;13.20;87.10;;;;;;4990531;28;20121;-76
2021/11/19 01:14:33;;;;;;;5.40;4.30;;;13.10;87.00;;;;;;4977556;28;20076;-76
2021/11/19 01:17:01;;;;;;;;;;;13.20;87.20;;;;;;4971718;28;20228;-79
2021/11/19 01:19:36;;;;;;;4.47;4.00;;;13.10;87.00;;;;;;5007414;28;19916;-73
2021/11/19 01:22:10;;;;;;;6.03;3.85;;;13.00;86.70;;;;;;4990508;28;20030;-77
2021/11/19 01:24:39;;;;;;;4.25;3.83;;;13.00;86.80;;;;;;5008103;28;20069;-78
2021/11/19 01:27:05;;;;;;;5.03;3.83;;;13.00;86.90;;;;;;5008569;28;20124;-81
2021/11/19 01:29:31;;;;;;;5.45;4.55;;;13.00;86.90;;;;;;5008315;28;20034;-76
2021/11/19 01:32:04;;;;;;;5.28;4.45;;;13.00;86.90;;;;;;5007860;28;20394;-74
2021/11/19 01:34:51;;;;;;;5.50;4.80;;;13.00;87.00;;;;;;4958866;28;20150;-75
2021/11/19 01:37:43;;;;;;;4.43;4.00;;;13.00;87.10;;;;;;4950581;28;20268;-78
2021/11/19 01:40:49;;;;;;;5.85;4.70;;;12.90;87.00;;;;;;4964063;28;20045;-77
2021/11/19 01:43:30;;;;;;;4.80;4.32;;;12.90;87.00;;;;;;4977296;28;20078;-74
2021/11/19 01:46:02;;;;;;;5.18;4.55;;;12.90;87.10;;;;;;4990368;28;20087;-77
2021/11/19 01:48:39;;;;;;;5.28;4.78;;;12.90;87.10;;;;;;5006080;28;20129;-74
2021/11/19 01:51:26;;;;;;;7.00;4.97;;;12.90;87.20;;;;;;5006244;28;20030;-74
2021/11/19 01:54:04;;;;;;;6.38;4.82;;;12.90;87.20;;;;;;4990147;28;20088;-74
2021/11/19 01:56:44;;;;;;;5.68;4.65;;;12.90;87.20;;;;;;5006161;28;20033;-82
2021/11/19 01:59:13;;;;;;;6.93;5.20;;;12.90;87.30;;;;;;5006302;28;20026;-83
2021/11/19 02:01:54;;;;;;;5.25;4.65;;;12.90;87.30;;;;;;5006741;28;20049;-79
2021/11/19 02:04:32;;;;;;;6.85;4.75;;;12.90;87.30;;;;;;5006521;28;20478;-82
2021/11/19 02:07:03;;;;;;;5.47;4.95;;;12.90;87.30;;;;;;5005899;28;20040;-75
2021/11/19 02:10:10;;;;;;;4.95;4.30;;;12.90;87.30;;;;;;4976365;28;20062;-77
2021/11/19 02:12:41;;;;;;;8.05;4.97;;;12.90;87.40;;;;;;5006021;28;20434;-75
2021/11/19 02:15:18;;;;;;;5.47;4.95;;;12.90;87.40;;;;;;5005941;28;20034;-75
2021/11/19 02:17:51;;;;;;;4.93;4.43;;;12.90;87.40;;;;;;5005789;28;20124;-78
2021/11/19 02:20:35;;;;;;;5.50;3.88;;;12.90;87.40;;;;;;4987163;28;20034;-78
2021/11/19 02:23:11;;;;;;;6.75;5.03;;;12.90;87.40;;;;;;4989432;28;20049;-81
2021/11/19 02:25:48;;;;;;;5.53;4.78;;;12.90;87.50;;;;;;5005742;28;20057;-78
2021/11/19 02:28:19;;;;;;;5.70;4.60;;;12.90;87.50;;;;;;5005570;28;20061;-74
2021/11/19 02:31:06;;;;;;;5.80;4.63;;;12.90;87.50;;;;;;5003108;28;20030;-80
2021/11/19 02:33:33;;;;;;;5.25;4.38;;;12.90;87.60;;;;;;4997922;28;20030;-76
2021/11/19 02:36:12;;;;;;;5.72;4.90;;;12.90;87.50;;;;;;4998568;28;20420;-79
2021/11/19 02:38:51;;;;;;;5.85;4.95;;;12.90;87.60;;;;;;4992533;28;20462;-78
2021/11/19 02:41:19;;;;;;;6.05;4.43;;;12.90;87.60;;;;;;5007032;28;20038;-78
2021/11/19 02:43:55;;;;;;;5.35;4.85;;;13.00;87.80;;;;;;5007020;28;20034;-79
2021/11/19 02:46:28;;;;;;;6.18;4.47;;;12.90;87.60;;;;;;4988973;28;20042;-78
2021/11/19 02:48:54;;;;;;;5.60;4.40;;;13.00;87.80;;;;;;4990480;28;20053;-77
2021/11/19 02:51:26;;;;;;;5.40;4.90;;;13.00;87.80;;;;;;4992989;28;20512;-74
2021/11/19 02:53:54;;;;;;;7.15;4.70;;;13.00;87.80;;;;;;4993718;28;20034;-74
2021/11/19 02:56:22;;;;;;;4.68;4.18;;;13.00;87.80;;;;;;4993924;28;20030;-74
2021/11/19 02:58:54;;;;;;;5.00;4.50;;;13.00;87.90;;;;;;4993207;28;20065;-85
2021/11/19 03:01:23;;;;;;;5.07;4.57;;;13.00;87.80;;;;;;5010106;28;20100;-77
2021/11/19 03:04:11;;;;;;;5.45;4.85;;;13.00;87.90;;;;;;4993431;28;20030;-77
2021/11/19 03:06:46;;;;;;;5.55;4.30;;;13.00;87.90;;;;;;5010514;28;20034;-75
2021/11/19 03:09:17;;;;;;;5.47;4.07;;;13.00;87.80;;;;;;4993510;28;20034;-78
2021/11/19 03:11:43;;;;;;;5.30;4.53;;;13.00;87.80;;;;;;5011002;28;20610;-77
2021/11/19 03:14:10;;;;;;;6.43;4.22;;;13.00;87.80;;;;;;5010306;28;20112;-85
2021/11/19 03:16:37;;;;;;;5.70;4.60;;;13.00;87.80;;;;;;4993835;28;20596;-89
2021/11/19 03:19:06;;;;;;;4.20;3.80;;;13.10;88.00;;;;;;4977907;28;20152;-87
2021/11/19 03:21:33;;;;;;;5.93;4.55;;;13.00;87.80;;;;;;5010885;28;20489;-87
2021/11/19 03:24:00;;;;;;;4.80;4.30;;;13.00;88.30;;;;;;4993577;28;20093;-85
2021/11/19 03:26:28;;;;;;;5.88;4.35;;;13.00;87.80;;;;;;4993716;28;20113;-77
2021/11/19 03:28:54;;;;;;;5.68;4.03;;;13.00;87.80;;;;;;5010884;28;20021;-77
2021/11/19 03:31:21;;;;;;;5.28;4.03;;;13.00;87.80;;;;;;4979679;28;20038;-80
2021/11/19 03:33:49;;;;;;;5.80;4.07;;;13.00;87.80;;;;;;4997507;28;20026;-77
2021/11/19 03:36:20;;;;;;;4.93;4.30;;;13.00;87.80;;;;;;4997207;28;20571;-75
2021/11/19 03:38:48;;;;;;;6.45;4.65;;;13.00;87.80;;;;;;4997268;28;20049;-76
2021/11/19 03:41:17;;;;;;;5.13;4.60;;;13.00;87.80;;;;;;4997146;28;20038;-76
2021/11/19 03:43:48;;;;;;;5.20;3.85;;;13.00;87.80;;;;;;4997060;28;20033;-76
2021/11/19 03:46:18;;;;;;;5.50;4.55;;;13.00;87.80;;;;;;4997186;28;20041;-76
2021/11/19 03:48:45;;;;;;;5.22;4.57;;;13.00;87.80;;;;;;5014552;28;20036;-78
2021/11/19 03:51:24;;;;;;;5.70;4.15;;;13.00;87.80;;;;;;4996224;28;20026;-78
2021/11/19 03:53:50;;;;;;;6.20;4.30;;;13.00;87.80;;;;;;4996788;28;20041;-77
2021/11/19 03:56:18;;;;;;;6.53;4.78;;;13.00;87.80;;;;;;4996980;28;20029;-82
2021/11/19 03:58:45;;;;;;;6.18;5.20;;;13.00;87.90;;;;;;4997119;28;20034;-79
2021/11/19 04:01:27;;;;;;;5.15;4.25;;;13.00;87.90;;;;;;5014012;28;20037;-76
2021/11/19 04:03:57;;;;;;;5.75;5.05;;;13.00;88.40;;;;;;4996603;28;20040;-82
2021/11/19 04:06:24;;;;;;;6.50;5.35;;;13.00;87.90;;;;;;4996647;28;20034;-76
2021/11/19 04:08:51;;;;;;;6.93;5.57;;;13.00;87.90;;;;;;4997059;28;20022;-78
2021/11/19 04:11:19;;;;;;;6.53;4.85;;;13.00;87.90;;;;;;4996488;28;20079;-77
2021/11/19 04:13:46;;;;;;;6.07;4.70;;;13.00;87.90;;;;;;4997015;28;20041;-90
2021/11/19 04:16:20;;;;;;;5.75;4.40;;;13.00;87.90;;;;;;5015100;28;20033;-89
2021/11/19 04:18:47;;;;;;;5.18;4.65;;;13.00;87.90;;;;;;4997099;28;20481;-80
2021/11/19 04:21:16;;;;;;;5.40;4.85;;;13.00;87.90;;;;;;4996275;28;20038;-82
2021/11/19 04:23:43;;;;;;;6.43;4.95;;;13.00;87.90;;;;;;5013939;28;20029;-81
2021/11/19 04:26:11;;;;;;;5.75;4.70;;;13.00;87.90;;;;;;4996935;28;20100;-89
2021/11/19 04:28:38;;;;;;;5.47;4.88;;;13.00;87.80;;;;;;4996646;28;20061;-75
2021/11/19 04:31:26;;;;;;;6.22;5.10;;;13.00;87.80;;;;;;5012817;28;20034;-79
2021/11/19 04:33:52;;;;;;;5.38;4.38;;;13.00;87.80;;;;;;4996087;28;20154;-77
2021/11/19 04:36:19;;;;;;;6.57;5.90;;;13.00;87.80;;;;;;4996364;28;20033;-76
2021/11/19 04:38:46;;;;;;;5.82;4.55;;;13.00;87.80;;;;;;5013513;28;20440;-78
2021/11/19 04:41:13;;;;;;;5.57;4.90;;;13.00;87.80;;;;;;5012132;28;20034;-75
2021/11/19 04:43:40;;;;;;;7.15;4.85;;;13.00;87.80;;;;;;5012842;28;20060;-75
2021/11/19 04:46:08;;;;;;;6.03;5.35;;;13.00;87.80;;;;;;4995809;28;20495;-76
2021/11/19 04:48:36;;;;;;;6.30;4.85;;;13.00;87.80;;;;;;4995933;28;20034;-78
2021/11/19 04:51:11;;;;;;;5.72;4.70;;;13.00;87.80;;;;;;4995387;28;20064;-77
2021/11/19 04:53:37;;;;;;;5.47;4.70;;;13.00;87.80;;;;;;4996156;28;20041;-80
2021/11/19 04:56:04;;;;;;;6.43;5.30;;;13.00;87.80;;;;;;4995938;28;20116;-76
2021/11/19 04:58:31;;;;;;;6.63;5.68;;;13.00;87.80;;;;;;4996063;28;20109;-78
2021/11/19 05:01:02;;;;;;;6.05;5.00;;;13.00;87.80;;;;;;4995486;28;20092;-77
2021/11/19 05:03:31;;;;;;;6.72;5.47;;;13.00;87.80;;;;;;4979601;28;20076;-76
2021/11/19 05:05:58;;;;;;;6.35;5.00;;;13.00;87.80;;;;;;4995811;28;20189;-76
2021/11/19 05:08:24;;;;;;;6.70;5.85;;;13.00;87.80;;;;;;4995948;28;20481;-81
2021/11/19 05:10:56;;;;;;;5.82;4.90;;;13.00;87.90;;;;;;4995831;28;20026;-77
2021/11/19 05:13:27;;;;;;;7.22;5.00;;;13.00;87.90;;;;;;5013097;28;20504;-87
2021/11/19 05:16:00;;;;;;;5.82;5.22;;;13.00;87.90;;;;;;4995433;28;20489;-76
2021/11/19 05:18:27;;;;;;;6.50;5.78;;;13.00;87.80;;;;;;5012070;28;20030;-77
2021/11/19 05:20:55;;;;;;;6.20;5.60;;;13.00;87.80;;;;;;4994879;28;20054;-81
2021/11/19 05:23:22;;;;;;;7.38;5.28;;;13.00;87.80;;;;;;4995401;28;20359;-79
2021/11/19 05:25:49;;;;;;;6.28;5.68;;;12.90;87.60;;;;;;4994970;28;20108;-76
2021/11/19 05:28:19;;;;;;;5.78;4.72;;;13.00;87.80;;;;;;4994768;28;20033;-82
2021/11/19 05:30:46;;;;;;;6.88;5.45;;;12.90;87.50;;;;;;4995362;28;20260;-77
2021/11/19 05:33:16;;;;;;;6.90;5.68;;;12.90;87.50;;;;;;5011594;28;20044;-81
2021/11/19 05:35:43;;;;;;;7.18;6.00;;;12.90;87.50;;;;;;4995107;28;20033;-82
2021/11/19 05:38:10;;;;;;;5.80;4.93;;;12.90;87.50;;;;;;4995020;28;20030;-79
2021/11/19 05:40:37;;;;;;;6.85;5.70;;;12.80;87.40;;;;;;4995138;28;20044;-80
2021/11/19 05:43:04;;;;;;;5.78;5.20;;;12.80;87.40;;;;;;4994599;28;20545;-77
2021/11/19 05:45:41;;;;;;;7.18;5.28;;;12.80;87.40;;;;;;4994894;28;20033;-77
2021/11/19 05:48:20;;;;;;;6.82;5.60;;;12.80;87.40;;;;;;5007599;28;20045;-79
2021/11/19 05:50:48;;;;;;;6.20;5.13;;;12.80;87.50;;;;;;4991443;28;20037;-76
2021/11/19 05:53:14;;;;;;;7.78;5.65;;;12.80;87.50;;;;;;5008690;28;20193;-79
2021/11/19 05:55:45;;;;;;;6.18;4.80;;;12.80;87.60;;;;;;4991482;28;20034;-76
2021/11/19 05:58:12;;;;;;;7.68;6.78;;;12.80;87.60;;;;;;4998282;28;20375;-75
2021/11/19 06:00:43;;;;;;;7.28;6.13;;;12.80;87.60;;;;;;5010803;28;20199;-76
2021/11/19 06:03:29;;;;;;;6.60;5.35;;;12.80;87.60;;;;;;4995330;28;20034;-78
2021/11/19 06:06:08;;;;;;;6.47;5.70;;;12.80;87.60;;;;;;5009628;28;20484;-77
2021/11/19 06:08:56;;;;;;;6.65;5.80;;;12.80;87.60;;;;;;5026703;28;20038;-81
2021/11/19 06:11:38;;;;;;;7.70;6.90;;;12.70;87.50;;;;;;4992960;28;20029;-78
2021/11/19 06:14:19;;;;;;;6.78;6.03;;;12.70;88.00;;;;;;5026567;28;20115;-76
2021/11/19 06:17:10;;;;;;;7.55;6.15;;;12.80;87.70;;;;;;5027109;28;20091;-78
2021/11/19 06:19:42;;;;;;;7.13;6.43;;;12.80;87.70;;;;;;5026316;28;20112;-81
2021/11/19 06:22:31;;;;;;;7.38;6.15;;;12.70;87.50;;;;;;5008421;28;20436;-78
2021/11/19 06:24:58;;;;;;;6.65;5.75;;;12.70;87.50;;;;;;5025928;28;20041;-79
2021/11/19 06:27:30;;;;;;;7.95;6.32;;;12.70;87.50;;;;;;5009211;28;20042;-79
2021/11/19 06:29:58;;;;;;;6.10;5.50;;;12.70;87.50;;;;;;5009356;28;20099;-76
2021/11/19 06:32:26;;;;;;;6.80;5.57;;;12.70;87.50;;;;;;5008652;28;20429;-79
2021/11/19 06:34:53;;;;;;;6.65;5.78;;;12.70;87.50;;;;;;5026402;28;20029;-77
2021/11/19 06:37:21;;;;;;;8.82;6.40;;;12.70;87.50;;;;;;5008983;28;20509;-79
2021/11/19 06:39:56;;;;;;;7.38;6.68;;;12.70;87.60;;;;;;5008599;28;20469;-77
2021/11/19 06:42:27;;;;;;;8.18;5.45;;;12.70;87.60;;;;;;5009206;28;20080;-82
2021/11/19 06:45:14;;;;;;;7.97;6.13;;;12.70;87.60;;;;;;5026480;28;20037;-80
2021/11/19 06:47:59;;;;;;;7.57;6.10;;;12.70;87.60;;;;;;4978488;28;20525;-77
2021/11/19 06:50:43;;;;;;;7.03;6.33;;;12.70;87.60;;;;;;4990612;28;20087;-78
2021/11/19 06:53:34;;;;;;;7.05;5.40;;;12.70;87.70;;;;;;5006013;28;20216;-77
2021/11/19 06:56:33;;;;;;;7.70;5.47;;;12.70;87.60;;;;;;4962668;28;20042;-80
2021/11/19 06:59:05;;;;;;;7.70;6.18;;;12.70;87.60;;;;;;4969404;28;20031;-79
2021/11/19 07:01:31;;;;;;;8.02;6.50;;;12.70;87.60;;;;;;4985727;28;20053;-78
2021/11/19 07:03:58;;;;;;;7.70;6.90;;;12.70;87.70;;;;;;4988850;28;20029;-80
2021/11/19 07:06:24;;;;;;;7.68;6.53;;;12.70;87.70;;;;;;4987920;28;20030;-78
2021/11/19 07:08:50;;;;;;;10.18;6.25;;;12.70;87.70;;;;;;4988658;28;20026;-81
2021/11/19 07:11:20;;;;;;;7.07;6.00;;;12.70;87.70;;;;;;4989083;28;20100;-85
2021/11/19 07:13:49;;;;;;;6.53;5.63;;;12.70;87.70;;;;;;4988985;28;20029;-72
2021/11/19 07:16:21;;;;;;;7.50;6.30;;;12.80;87.90;;;;;;4989855;28;20230;-82
2021/11/19 07:18:47;;;;;;;7.78;6.05;;;12.70;87.70;;;;;;4988623;28;20030;-76
2021/11/19 07:21:14;;;;;;;8.30;6.28;;;12.70;87.70;;;;;;4985790;28;20046;-73
2021/11/19 07:23:41;;;;;;;7.65;6.18;;;12.70;87.70;;;;;;4966676;28;20038;-75
2021/11/19 07:26:09;;;;;;;8.68;6.75;;;12.80;87.90;;;;;;4984912;28;20034;-80
2021/11/19 07:28:37;;;;;;;7.03;6.15;;;12.70;87.70;;;;;;4988617;28;20030;-78
2021/11/19 07:31:28;;;;;;;7.53;6.07;;;12.70;87.70;;;;;;5005232;28;20374;-77
2021/11/19 07:34:18;;;;;;;8.27;6.43;;;12.80;87.90;;;;;;4988682;28;20080;-81
2021/11/19 07:36:59;;;;;;;9.63;6.18;;;12.80;87.80;;;;;;4988435;28;20490;-81
2021/11/19 07:39:53;;;;;;;8.63;5.90;;;12.80;87.90;;;;;;4987375;28;20508;-79
2021/11/19 07:42:42;;;;;;;7.30;5.90;;;12.80;87.80;;;;;;4997404;28;20037;-78
2021/11/19 07:45:17;;;;;;;7.53;5.82;;;12.70;87.70;;;;;;4954518;28;20038;-81
2021/11/19 07:47:52;;;;;;;8.25;7.45;;;12.70;87.70;;;;;;4982848;28;20037;-85
2021/11/19 07:50:23;;;;;;;7.80;6.05;;;12.70;87.70;;;;;;4984312;28;20034;-78
2021/11/19 07:52:49;;;;;;;8.05;5.65;;;12.80;87.90;;;;;;4988101;28;20030;-83
2021/11/19 07:55:16;;;;;;;6.53;5.80;;;12.80;87.90;;;;;;4987828;28;20092;-79
2021/11/19 07:57:42;;;;;;;8.27;6.47;;;12.80;88.40;;;;;;4971010;28;20154;-84
2021/11/19 08:00:14;;;;;;;7.22;6.50;;;12.80;87.90;;;;;;4982527;28;20027;-79
2021/11/19 08:02:56;;;;;;;9.70;6.18;;;12.80;87.90;;;;;;4979161;28;20040;-83
2021/11/19 08:05:22;;;;;;;8.32;5.90;;;12.80;87.90;;;;;;4988154;28;20153;-80
2021/11/19 08:08:18;;;;;;;8.80;6.35;;;12.80;87.90;;;;;;4980237;28;20036;-79
2021/11/19 08:11:09;;;;;;;11.18;7.45;;;12.90;88.10;;;;;;5004559;28;20392;-79
2021/11/19 08:13:36;;;;;;;7.60;6.03;;;12.90;88.10;;;;;;4983853;28;20041;-79
2021/11/19 08:16:04;;;;;;;8.45;5.68;;;12.90;88.10;;;;;;4988389;28;20053;-79
2021/11/19 08:19:00;;;;;;;9.52;8.18;;;12.80;87.90;;;;;;4977144;28;20168;-80
2021/11/19 08:21:27;;;;;;;7.68;6.63;;;12.90;88.10;;;;;;4990312;28;20129;-80
2021/11/19 08:24:05;;;;;;;8.63;6.13;;;12.90;88.10;;;;;;4991539;28;20045;-81
2021/11/19 08:26:38;;;;;;;7.90;6.40;;;12.90;88.10;;;;;;4989171;28;20037;-78
2021/11/19 08:29:11;;;;;;;8.65;5.97;;;12.90;88.10;;;;;;4984371;28;20022;-79
2021/11/19 08:31:37;;;;;;;9.57;7.10;;;12.90;88.10;;;;;;5008873;28;20081;-80
2021/11/19 08:34:03;;;;;;;7.88;6.78;;;12.90;88.00;;;;;;5007219;28;20033;-79
2021/11/19 08:36:31;;;;;;;7.47;6.25;;;12.90;88.00;;;;;;5007776;28;20029;-76
2021/11/19 08:38:58;;;;;;;9.05;6.35;;;12.90;88.10;;;;;;5008981;28;20064;-78
2021/11/19 08:41:26;;;;;;;7.93;6.07;;;12.90;88.00;;;;;;4990819;28;20147;-79
2021/11/19 08:43:55;;;;;;;9.65;6.75;;;12.90;88.00;;;;;;5007003;28;20030;-79
2021/11/19 08:46:31;;;;;;;8.70;7.07;;;12.90;88.00;;;;;;4992496;28;20050;-79
2021/11/19 08:49:03;;;;;;;8.85;6.65;;;12.90;88.00;;;;;;5016353;28;20064;-80
2021/11/19 08:51:30;;;;;;;7.15;6.25;;;12.90;88.00;;;;;;5007939;28;20045;-81
2021/11/19 08:54:01;;;;;;;8.63;7.72;;;13.00;88.20;;;;;;4991140;28;20088;-79
2021/11/19 08:56:29;;;;;;;7.82;6.68;;;13.00;88.20;;;;;;5008291;28;20041;-79
2021/11/19 08:58:55;;;;;;;8.45;6.70;;;13.00;88.20;;;;;;5007995;28;20032;-80
2021/11/19 09:01:22;;;;;;;8.57;7.07;;;13.10;88.40;;;;;;5007629;28;20398;-79
2021/11/19 09:03:49;;;;;;;8.90;6.40;;;13.00;88.10;;;;;;4990608;28;20033;-79
2021/11/19 09:06:18;;;;;;;7.93;6.80;;;13.00;88.10;;;;;;5016192;28;20040;-80
2021/11/19 09:08:45;;;;;;;8.00;6.78;;;13.10;88.30;;;;;;4999614;28;20320;-81
2021/11/19 09:11:14;;;;;;;7.78;6.72;;;13.10;88.20;;;;;;5019141;28;20030;-78
2021/11/19 09:13:41;;;;;;;8.52;6.80;;;13.10;88.20;;;;;;5027337;28;20681;-76
2021/11/19 09:16:10;;;;;;;8.85;6.25;;;13.20;88.30;;;;;;5010414;28;20385;-78
2021/11/19 09:18:36;;;;;;;9.35;7.38;;;13.20;88.30;;;;;;4990094;28;20026;-80
2021/11/19 09:21:22;;;;;;;10.00;7.15;;;13.20;88.20;;;;;;5007467;28;20092;-80
2021/11/19 09:23:55;;;;;;;7.80;6.57;;;13.30;88.30;;;;;;5016375;28;20028;-78
2021/11/19 09:26:41;;;;;;;7.88;6.78;;;13.30;88.20;;;;;;5008739;28;20029;-79
2021/11/19 09:29:19;;;;;;;7.85;6.38;;;13.30;88.20;;;;;;5026583;28;20131;-80
2021/11/19 09:31:48;;;;;;;8.23;6.72;;;13.40;88.30;;;;;;5009816;28;20030;-80
2021/11/19 09:34:17;;;;;;;8.95;6.88;;;13.50;88.40;;;;;;5026507;28;20124;-78
2021/11/19 09:36:44;;;;;;;8.10;6.68;;;13.50;88.20;;;;;;5027309;28;20025;-79
2021/11/19 09:39:15;;;;;;;7.63;6.30;;;13.60;88.30;;;;;;5009249;28;20033;-78
2021/11/19 09:41:56;;;;;;;8.32;6.60;;;13.70;88.40;;;;;;5027430;28;20040;-78
2021/11/19 09:44:41;;;;;;;9.55;6.63;;;13.70;88.30;;;;;;5009459;28;20036;-78
2021/11/19 09:47:34;;;;;;;10.98;7.30;;;13.80;88.40;;;;;;5103768;27;20385;-73
2021/11/19 09:50:15;;;;;;;7.63;6.60;;;13.90;88.50;;;;;;5082707;28;20108;-73
2021/11/19 09:52:59;;;;;;;7.95;6.85;;;14.10;88.70;;;;;;5082463;28;20042;-71
2021/11/19 09:56:05;;;;;;;9.27;5.90;;;14.20;88.60;;;;;;5083466;28;20038;-72
2021/11/19 09:58:53;;;;;;;8.70;6.60;;;14.40;88.70;;;;;;5074175;28;20024;-79
2021/11/19 10:01:51;;;;;;;6.45;5.55;;;14.50;88.60;;;;;;5102597;28;20565;-80
2021/11/19 10:04:45;;;;;;;8.30;6.88;;;14.70;88.60;;;;;;5103856;28;20059;-72
2021/11/19 10:07:11;;;;;;;6.25;5.40;;;14.90;88.70;;;;;;5103144;28;20043;-72
2021/11/19 10:09:52;;;;;;;7.15;5.50;;;15.00;88.60;;;;;;5106605;28;20034;-72
2021/11/19 10:12:35;;;;;;;7.70;6.78;;;15.00;88.30;;;;;;5113421;28;20393;-76
2021/11/19 10:15:19;;;;;;;6.07;5.18;;;15.10;88.30;;;;;;5114245;28;20305;-72
2021/11/19 10:17:51;;;;;;;7.00;5.93;;;15.10;88.20;;;;;;5111127;28;20105;-74
2021/11/19 10:20:28;;;;;;;5.93;5.07;;;15.10;88.10;;;;;;5107291;28;20077;-77
2021/11/19 10:23:04;;;;;;;6.03;5.35;;;15.20;88.20;;;;;;5105051;28;20039;-76
2021/11/19 10:25:33;;;;;;;5.15;4.43;;;15.20;88.20;;;;;;5085079;28;20039;-76
2021/11/19 10:28:05;;;;;;;5.45;4.82;;;15.30;88.20;;;;;;5103107;28;20034;-73
2021/11/19 10:30:41;;;;;;;5.85;5.20;;;15.30;88.10;;;;;;5085067;28;20034;-75
2021/11/19 10:33:18;;;;;;;6.05;4.75;;;15.40;88.10;;;;;;5103269;28;20040;-78
2021/11/19 10:36:20;;;;;;;5.20;4.75;;;15.50;88.10;;;;;;5101960;27;20131;-76
2021/11/19 10:39:09;;;;;;;5.10;4.22;;;15.60;88.00;;;;;;5093491;28;20077;-74
2021/11/19 10:41:53;;;;;;;5.97;5.03;;;15.70;87.90;;;;;;5102895;27;20175;-80
2021/11/19 10:44:57;;;;;;;5.00;4.28;;;15.80;88.00;;;;;;5103095;28;20059;-77
2021/11/19 10:48:00;;;;;;;5.65;5.05;;;15.80;87.80;;;;;;5100997;28;20481;-77
2021/11/19 10:51:23;;;;;;;5.22;4.70;;;16.00;87.90;;;;;;5082084;28;20059;-75
2021/11/19 10:53:58;;;;;;;4.88;4.38;;;16.00;87.70;;;;;;5042597;28;20369;-73
2021/11/19 10:56:43;;;;;;;4.47;3.92;;;16.10;87.70;;;;;;5059019;28;20032;-72
2021/11/19 10:59:32;;;;;;;6.35;3.88;;;16.20;87.60;;;;;;5072138;28;20563;-76
2021/11/19 11:02:08;;;;;;;3.65;3.25;;;16.30;87.50;;;;;;5087457;28;20039;-73
2021/11/19 11:04:40;;;;;;;4.32;3.92;;;16.30;87.30;;;;;;5086190;28;20028;-76
2021/11/19 11:07:28;;;;;;;5.25;3.42;;;16.40;87.30;;;;;;5088909;28;20032;-79
2021/11/19 11:10:08;;;;;;;3.63;2.80;;;16.40;87.10;;;;;;5088633;28;20071;-75
2021/11/19 11:12:46;;;;;;;3.17;2.85;;;16.50;87.10;;;;;;5088711;28;20024;-74
2021/11/19 11:15:30;;;;;;;3.28;2.85;;;16.50;87.00;;;;;;5080883;28;20060;-71
2021/11/19 11:18:11;;;;;;;3.38;2.65;;;16.50;86.90;;;;;;5083271;28;20051;-77
2021/11/19 11:20:52;;;;;;;3.20;2.55;;;16.50;86.80;;;;;;5086523;28;20059;-74
2021/11/19 11:23:50;;;;;;;2.83;2.60;;;16.50;86.70;;;;;;5086681;28;20039;-74
2021/11/19 11:26:25;;;;;;;3.30;2.95;;;16.50;86.70;;;;;;5088271;28;20040;-75
2021/11/19 11:28:56;;;;;;;3.03;2.58;;;16.60;86.80;;;;;;5087081;28;20526;-79
2021/11/19 11:31:54;;;;;;;2.70;2.50;;;16.60;86.70;;;;;;5086954;28;20032;-77
2021/11/19 11:34:50;;;;;;;3.10;2.63;;;16.60;86.60;;;;;;5069910;28;20075;-77
2021/11/19 11:37:22;;;;;;;2.97;2.70;;;16.60;86.50;;;;;;5087660;28;20032;-77
2021/11/19 11:40:09;;;;;;;3.80;3.10;;;16.60;86.60;;;;;;5087843;28;20024;-78
2021/11/19 11:42:48;;;;;;;4.57;3.40;;;16.60;86.50;;;;;;5087559;28;20085;-74
2021/11/19 11:45:20;;;;;;;2.85;2.65;;;16.50;86.30;;;;;;5086432;28;20032;-75
2021/11/19 11:47:52;;;;;;;2.50;2.30;;;16.50;86.30;;;;;;5087666;28;20127;-78
2021/11/19 11:50:37;;;;;;;3.33;1.85;;;16.50;86.30;;;;;;5086117;28;20474;-71
2021/11/19 11:53:23;;;;;;;2.10;1.90;;;16.50;86.40;;;;;;5088058;28;20043;-73
2021/11/19 11:56:11;;;;;;;2.97;2.25;;;16.60;86.40;;;;;;5086975;28;20127;-78
2021/11/19 11:59:14;;;;;;;2.58;2.33;;;16.60;86.30;;;;;;5086239;28;20025;-78
2021/11/19 12:02:23;;;;;;;2.22;2.03;;;16.60;86.20;;;;;;5085895;28;20482;-73
2021/11/19 12:05:16;;;;;;;2.40;2.20;;;16.60;86.20;;;;;;5084579;28;20047;-78
2021/11/19 12:08:06;;;;;;;2.10;1.90;;;16.60;86.20;;;;;;5087670;28;20482;-74
2021/11/19 12:10:41;;;;;;;2.17;1.90;;;16.70;86.30;;;;;;5085756;28;20641;-76
2021/11/19 12:13:25;;;;;;;2.20;1.77;;;16.60;86.50;;;;;;5086001;28;20039;-75
2021/11/19 12:16:09;;;;;;;2.67;2.00;;;16.60;85.90;;;;;;5069351;28;20024;-76
2021/11/19 12:18:46;;;;;;;3.05;2.00;;;16.60;85.90;;;;;;5085708;28;20024;-76
2021/11/19 12:21:49;;;;;;;2.00;1.50;;;16.60;86.00;;;;;;5085566;28;20086;-71
2021/11/19 12:24:30;;;;;;;2.20;2.00;;;16.50;85.90;;;;;;5087382;28;20433;-77
2021/11/19 12:27:01;;;;;;;1.60;1.45;;;16.50;85.90;;;;;;5086437;28;20036;-73
2021/11/19 12:29:34;;;;;;;2.22;1.73;;;16.40;85.70;;;;;;5087133;28;20165;-75
2021/11/19 12:32:07;;;;;;;1.45;1.35;;;16.40;85.80;;;;;;5087882;28;20131;-75
2021/11/19 12:34:42;;;;;;;2.38;1.48;;;16.40;85.80;;;;;;5086122;28;20375;-74
2021/11/19 12:37:13;;;;;;;2.45;1.90;;;16.40;85.80;;;;;;5087416;28;20032;-77
2021/11/19 12:39:45;;;;;;;2.10;1.60;;;16.40;85.80;;;;;;5086925;28;20024;-72
2021/11/19 12:42:26;;;;;;;2.05;1.83;;;16.30;85.70;;;;;;5086238;28;20550;-72
2021/11/19 12:45:02;;;;;;;2.35;1.95;;;16.30;85.70;;;;;;5086762;28;20131;-72
2021/11/19 12:47:31;;;;;;;1.40;1.30;;;16.30;85.80;;;;;;5086064;28;20089;-72
2021/11/19 12:50:24;;;;;;;1.70;1.60;;;16.20;85.80;;;;;;5086313;28;20035;-72
2021/11/19 12:53:01;;;;;;;3.05;1.70;;;16.20;85.80;;;;;;5086910;28;20040;-72
2021/11/19 12:55:30;;;;;;;2.15;1.27;;;16.30;86.00;;;;;;5066720;28;20108;-72
2021/11/19 12:58:25;;;;;;;2.25;1.58;;;16.30;86.00;;;;;;5069310;28;20074;-76
2021/11/19 13:01:24;;;;;;;1.23;1.00;;;16.40;86.10;;;;;;5076674;28;20089;-73
2021/11/19 13:03:59;;;;;;;1.88;1.50;;;16.40;86.00;;;;;;5062393;28;20047;-72
2021/11/19 13:06:26;;;;;;;1.40;1.27;;;16.50;86.10;;;;;;5086278;28;20488;-72
2021/11/19 13:08:59;;;;;;;1.77;1.55;;;16.60;86.20;;;;;;5084645;28;20028;-76
2021/11/19 13:11:34;;;;;;;1.75;1.55;;;16.60;86.10;;;;;;5085700;28;20456;-73
2021/11/19 13:14:12;;;;;;;1.73;1.38;;;16.70;86.20;;;;;;5086318;28;20478;-72
2021/11/19 13:16:40;;;;;;;1.67;1.08;;;16.80;86.20;;;;;;5086416;28;20501;-78
2021/11/19 13:19:25;;;;;;;2.10;1.30;;;16.70;86.50;;;;;;5084885;28;20032;-73
2021/11/19 13:22:05;;;;;;;1.63;1.23;;;16.70;85.80;;;;;;5084574;28;20028;-75
2021/11/19 13:24:46;;;;;;;2.95;1.10;;;16.70;86.30;;;;;;5085058;28;20059;-72
2021/11/19 13:27:12;;;;;;;2.75;1.08;;;16.80;85.90;;;;;;5068447;28;20706;-72